createdAt,value
2023-04-10T00:01:15.472Z,6.94
2023-04-10T00:03:43.645Z,6.89
2023-04-10T00:06:11.985Z,6.86
2023-04-10T00:08:39.913Z,6.82
2023-04-10T00:11:07.909Z,6.79
2023-04-10T00:13:36.352Z,6.75
2023-04-10T00:16:04.792Z,6.72
2023-04-10T00:18:32.673Z,6.68
2023-04-10T00:21:00.924Z,6.64
2023-04-10T00:23:31.982Z,6.61
2023-04-10T00:25:59.899Z,6.57
2023-04-10T00:28:28.158Z,6.53
2023-04-10T00:30:56.181Z,6.48
2023-04-10T00:33:24.084Z,6.44
2023-04-10T00:35:52.505Z,6.40
2023-04-10T00:38:21.527Z,6.37
2023-04-10T00:40:49.449Z,6.34
2023-04-10T00:43:20.464Z,6.30
2023-04-10T00:45:49.958Z,6.26
2023-04-10T00:48:19.441Z,6.24
2023-04-10T00:50:47.692Z,6.21
2023-04-10T00:53:17.492Z,6.17
2023-04-10T00:55:46.132Z,6.14
2023-04-10T00:58:14.765Z,6.12
2023-04-10T01:00:42.737Z,6.09
2023-04-10T01:03:12.796Z,6.06
2023-04-10T01:06:06.372Z,6.03
2023-04-10T01:09:22.263Z,6.01
2023-04-10T01:11:52.955Z,5.97
2023-04-10T01:14:27.930Z,5.94
2023-04-10T01:17:07.522Z,5.92
2023-04-10T01:19:51.392Z,5.89
2023-04-10T01:22:26.681Z,5.85
2023-04-10T01:25:10.899Z,5.81
2023-04-10T01:28:17.789Z,5.77
2023-04-10T01:30:52.475Z,5.74
2023-04-10T01:33:22.822Z,5.72
2023-04-10T01:35:55.849Z,5.71
2023-04-10T01:38:28.685Z,5.70
2023-04-10T01:40:59.884Z,5.70
2023-04-10T01:43:32.958Z,5.71
2023-04-10T01:46:03.345Z,5.71
2023-04-10T01:48:31.489Z,5.73
2023-04-10T01:51:05.179Z,5.74
2023-04-10T01:53:34.223Z,5.75
2023-04-10T01:56:03.317Z,5.76
2023-04-10T01:58:36.961Z,5.76
2023-04-10T02:01:06.666Z,5.76
2023-04-10T02:03:34.878Z,5.76
2023-04-10T02:06:15.836Z,5.77
2023-04-10T02:08:53.090Z,5.78
2023-04-10T02:11:41.618Z,5.77
2023-04-10T02:14:12.228Z,5.75
2023-04-10T02:16:41.936Z,5.74
2023-04-10T02:19:13.047Z,5.74
2023-04-10T02:21:42.281Z,5.73
2023-04-10T02:24:10.554Z,5.72
2023-04-10T02:26:58.828Z,5.71
2023-04-10T02:29:26.886Z,5.70
2023-04-10T02:31:55.503Z,5.68
2023-04-10T02:34:23.652Z,5.67
2023-04-10T02:36:52.297Z,5.65
2023-04-10T02:39:20.647Z,5.64
2023-04-10T02:41:51.667Z,5.61
2023-04-10T02:44:19.903Z,5.59
2023-04-10T02:46:47.984Z,5.55
2023-04-10T02:49:16.176Z,5.53
2023-04-10T02:51:45.661Z,5.49
2023-04-10T02:54:13.621Z,5.46
2023-04-10T02:56:41.892Z,5.43
2023-04-10T02:59:09.924Z,5.40
2023-04-10T03:01:39.761Z,5.37
2023-04-10T03:04:08.448Z,5.35
2023-04-10T03:06:39.635Z,5.32
2023-04-10T03:09:08.104Z,5.29
2023-04-10T03:11:36.194Z,5.25
2023-04-10T03:14:04.992Z,5.23
2023-04-10T03:16:33.168Z,5.21
2023-04-10T03:19:04.750Z,5.20
2023-04-10T03:21:33.031Z,5.17
2023-04-10T03:24:01.279Z,5.13
2023-04-10T03:26:29.607Z,5.10
2023-04-10T03:28:58.572Z,5.07
2023-04-10T03:31:26.541Z,5.04
2023-04-10T03:33:57.106Z,4.98
2023-04-10T03:36:25.743Z,4.93
2023-04-10T03:38:54.964Z,4.92
2023-04-10T03:41:25.627Z,4.90
2023-04-10T03:43:54.362Z,4.87
2023-04-10T03:46:23.206Z,4.85
2023-04-10T03:48:54.288Z,4.83
2023-04-10T03:51:24.805Z,4.81
2023-04-10T03:53:53.637Z,4.80
2023-04-10T03:56:22.834Z,4.79
2023-04-10T03:58:51.332Z,4.78
2023-04-10T04:01:19.875Z,4.76
2023-04-10T04:04:01.445Z,4.74
2023-04-10T04:06:58.763Z,4.74
2023-04-10T04:09:59.073Z,4.71
2023-04-10T04:12:39.226Z,4.68
2023-04-10T04:15:43.011Z,4.65
2023-04-10T04:18:19.913Z,4.62
2023-04-10T04:20:56.654Z,4.60
2023-04-10T04:23:40.079Z,4.59
2023-04-10T04:26:31.792Z,4.60
2023-04-10T04:29:15.884Z,4.60
2023-04-10T04:32:10.517Z,4.62
2023-04-10T04:34:58.748Z,4.64
2023-04-10T04:37:46.318Z,4.67
2023-04-10T04:40:37.563Z,4.70
2023-04-10T04:43:21.371Z,4.75
2023-04-10T04:46:02.526Z,4.80
2023-04-10T04:48:59.927Z,4.85
2023-04-10T04:51:47.645Z,4.90
2023-04-10T04:54:28.691Z,4.96
2023-04-10T04:57:32.126Z,5.02
2023-04-10T05:00:18.796Z,5.08
2023-04-10T05:03:02.053Z,5.13
2023-04-10T05:05:37.862Z,5.17
2023-04-10T05:08:24.253Z,5.20
2023-04-10T05:11:06.871Z,5.23
2023-04-10T05:13:53.374Z,5.28
2023-04-10T05:16:27.667Z,5.33
2023-04-10T05:19:12.000Z,5.38
2023-04-10T05:22:00.501Z,5.44
2023-04-10T05:24:45.053Z,5.49
2023-04-10T05:27:17.942Z,5.53
2023-04-10T05:30:04.999Z,5.59
2023-04-10T05:32:39.079Z,5.66
2023-04-10T05:35:39.526Z,5.73
2023-04-10T05:38:20.890Z,5.79
2023-04-10T05:41:01.355Z,5.85
2023-04-10T05:43:42.056Z,5.91
2023-04-10T05:46:33.266Z,5.98
2023-04-10T05:49:22.804Z,6.06
2023-04-10T05:52:04.810Z,6.13
2023-04-10T05:54:47.271Z,6.21
2023-04-10T05:57:51.666Z,6.32
2023-04-10T06:00:53.784Z,6.43
2023-04-10T06:03:51.378Z,6.55
2023-04-10T06:06:20.988Z,6.65
2023-04-10T06:08:48.972Z,6.75
2023-04-10T06:11:17.053Z,6.83
2023-04-10T06:13:48.616Z,6.93
2023-04-10T06:16:17.122Z,7.03
2023-04-10T06:18:46.612Z,7.12
2023-04-10T06:21:14.961Z,7.24
2023-04-10T06:23:42.866Z,7.37
2023-04-10T06:26:11.171Z,7.49
2023-04-10T06:28:39.741Z,7.62
2023-04-10T06:31:07.888Z,7.74
2023-04-10T06:33:37.394Z,7.87
2023-04-10T06:36:07.570Z,7.98
2023-04-10T06:38:39.988Z,8.10
2023-04-10T06:41:09.036Z,8.23
2023-04-10T06:43:39.105Z,8.36
2023-04-10T06:46:07.432Z,8.49
2023-04-10T06:48:35.757Z,8.64
2023-04-10T06:51:04.258Z,8.79
2023-04-10T06:53:32.293Z,8.94
2023-04-10T06:56:03.099Z,9.08
2023-04-10T06:58:32.133Z,9.21
2023-04-10T07:01:04.542Z,9.33
2023-04-10T07:03:32.938Z,9.47
2023-04-10T07:06:03.309Z,9.59
2023-04-10T07:08:31.830Z,9.72
2023-04-10T07:10:59.969Z,9.84
2023-04-10T07:13:28.174Z,9.97
2023-04-10T07:15:56.430Z,10.11
2023-04-10T07:18:24.404Z,10.26
2023-04-10T07:20:52.492Z,10.41
2023-04-10T07:23:20.613Z,10.55
2023-04-10T07:25:48.632Z,10.68
2023-04-10T07:28:16.583Z,10.82
2023-04-10T07:30:44.956Z,10.95
2023-04-10T07:33:13.362Z,11.09
2023-04-10T07:35:41.705Z,11.22
2023-04-10T07:38:12.354Z,11.36
2023-04-10T07:40:40.648Z,11.49
2023-04-10T07:43:08.726Z,11.61
2023-04-10T07:45:37.005Z,11.73
2023-04-10T07:48:06.430Z,11.87
2023-04-10T07:50:35.922Z,12.01
2023-04-10T07:53:07.987Z,12.15
2023-04-10T07:55:45.569Z,12.30
2023-04-10T07:58:13.706Z,12.44
2023-04-10T08:00:42.064Z,12.56
2023-04-10T08:03:10.124Z,12.70
2023-04-10T08:05:41.307Z,12.83
2023-04-10T08:08:09.306Z,12.95
2023-04-10T08:10:38.800Z,13.09
2023-04-10T08:13:06.956Z,13.23
2023-04-10T08:15:35.029Z,13.37
2023-04-10T08:18:02.980Z,13.49
2023-04-10T08:20:37.064Z,13.62
2023-04-10T08:23:17.284Z,13.75
2023-04-10T08:25:48.275Z,13.89
2023-04-10T08:28:16.226Z,14.01
2023-04-10T08:30:44.188Z,14.12
2023-04-10T08:33:12.482Z,14.22
2023-04-10T08:35:40.530Z,14.31
2023-04-10T08:38:13.904Z,14.42
2023-04-10T08:40:44.940Z,14.54
2023-04-10T08:43:13.065Z,14.67
2023-04-10T08:45:41.855Z,14.77
2023-04-10T08:48:12.106Z,14.87
2023-04-10T08:50:43.723Z,14.96
2023-04-10T08:53:13.944Z,15.05
2023-04-10T08:55:44.208Z,15.14
2023-04-10T08:58:13.808Z,15.21
2023-04-10T09:00:42.128Z,15.23
2023-04-10T09:03:12.139Z,15.27
2023-04-10T09:05:40.264Z,15.28
2023-04-10T09:08:09.522Z,15.27
2023-04-10T09:10:37.507Z,15.28
2023-04-10T09:13:05.573Z,15.34
2023-04-10T09:16:00.493Z,15.43
2023-04-10T09:18:51.650Z,15.53
2023-04-10T09:21:21.476Z,15.64
2023-04-10T09:23:59.599Z,15.73
2023-04-10T09:26:30.786Z,15.84
2023-04-10T09:29:10.616Z,15.95
2023-04-10T09:31:40.419Z,16.06
2023-04-10T09:34:09.538Z,16.15
2023-04-10T09:36:38.398Z,16.23
2023-04-10T09:39:07.566Z,16.33
2023-04-10T09:41:35.636Z,16.45
2023-04-10T09:44:12.041Z,16.56
2023-04-10T09:46:41.033Z,16.65
2023-04-10T09:49:09.521Z,16.75
2023-04-10T09:51:39.974Z,16.87
2023-04-10T09:54:08.680Z,16.95
2023-04-10T09:56:40.476Z,17.04
2023-04-10T09:59:08.801Z,17.13
2023-04-10T10:01:40.144Z,17.21
2023-04-10T10:04:09.474Z,17.31
2023-04-10T10:06:39.267Z,17.40
2023-04-10T10:09:08.101Z,17.49
2023-04-10T10:11:36.921Z,17.59
2023-04-10T10:14:13.561Z,17.67
2023-04-10T10:16:50.104Z,17.74
2023-04-10T10:19:46.471Z,17.82
2023-04-10T10:22:14.824Z,17.85
2023-04-10T10:24:47.716Z,17.82
2023-04-10T10:27:18.281Z,17.74
2023-04-10T10:29:49.248Z,17.62
2023-04-10T10:32:18.673Z,17.50
2023-04-10T10:34:48.182Z,17.41
2023-04-10T10:37:17.935Z,17.36
2023-04-10T10:40:14.740Z,17.34
2023-04-10T10:43:04.084Z,17.37
2023-04-10T10:45:52.756Z,17.42
2023-04-10T10:48:20.824Z,17.48
2023-04-10T10:50:59.140Z,17.52
2023-04-10T10:53:38.988Z,17.55
2023-04-10T10:56:22.943Z,17.55
2023-04-10T10:58:56.632Z,17.53
2023-04-10T11:01:25.243Z,17.48
2023-04-10T11:03:53.596Z,17.47
2023-04-10T11:06:43.613Z,17.48
2023-04-10T11:09:46.137Z,17.49
2023-04-10T11:12:15.103Z,17.47
2023-04-10T11:14:45.169Z,17.50
2023-04-10T11:17:13.182Z,17.56
2023-04-10T11:20:11.034Z,17.63
2023-04-10T11:23:14.014Z,17.71
2023-04-10T11:25:54.859Z,17.81
2023-04-10T11:28:31.981Z,17.92
2023-04-10T11:31:24.132Z,18.03
2023-04-10T11:34:04.412Z,18.10
2023-04-10T11:36:34.925Z,18.13
2023-04-10T11:39:14.347Z,18.17
2023-04-10T11:41:44.937Z,18.23
2023-04-10T11:44:16.413Z,18.28
2023-04-10T11:46:51.155Z,18.36
2023-04-10T11:49:21.895Z,18.42
2023-04-10T11:51:52.988Z,18.49
2023-04-10T11:54:21.287Z,18.52
2023-04-10T11:57:18.998Z,18.55
2023-04-10T11:59:51.291Z,18.58
2023-04-10T12:02:19.460Z,18.61
2023-04-10T12:04:57.807Z,18.61
2023-04-10T12:07:31.247Z,18.63
2023-04-10T12:10:00.104Z,18.64
2023-04-10T12:12:39.175Z,18.63
2023-04-10T12:15:27.408Z,18.64
2023-04-10T12:17:56.596Z,18.65
2023-04-10T12:20:27.932Z,18.67
2023-04-10T12:22:57.506Z,18.73
2023-04-10T12:25:25.816Z,18.79
2023-04-10T12:27:53.775Z,18.85
2023-04-10T12:30:22.652Z,18.93
2023-04-10T12:32:53.795Z,19.00
2023-04-10T12:35:38.976Z,19.06
2023-04-10T12:38:07.584Z,19.09
2023-04-10T12:40:35.754Z,19.11
2023-04-10T12:43:03.857Z,19.13
2023-04-10T12:45:45.503Z,19.14
2023-04-10T12:48:23.448Z,19.16
2023-04-10T12:50:52.565Z,19.16
2023-04-10T12:53:20.914Z,19.16
2023-04-10T12:56:05.290Z,19.16
2023-04-10T12:58:33.701Z,19.18
2023-04-10T13:01:07.436Z,19.22
2023-04-10T13:03:37.672Z,19.26
2023-04-10T13:06:09.980Z,19.30
2023-04-10T13:08:38.065Z,19.35
2023-04-10T13:11:06.877Z,19.38
2023-04-10T13:13:34.968Z,19.39
2023-04-10T13:16:03.331Z,19.40
2023-04-10T13:18:31.655Z,19.43
2023-04-10T13:20:59.977Z,19.48
2023-04-10T13:23:28.120Z,19.55
2023-04-10T13:25:56.972Z,19.61
2023-04-10T13:28:25.832Z,19.67
2023-04-10T13:30:54.070Z,19.73
2023-04-10T13:33:22.292Z,19.77
2023-04-10T13:35:50.349Z,19.78
2023-04-10T13:38:20.761Z,19.78
2023-04-10T13:40:49.406Z,19.78
2023-04-10T13:43:17.431Z,19.79
2023-04-10T13:45:45.676Z,19.81
2023-04-10T13:48:16.604Z,19.82
2023-04-10T13:50:44.782Z,19.84
2023-04-10T13:53:13.008Z,19.88
2023-04-10T13:55:43.817Z,19.90
2023-04-10T13:58:13.607Z,19.92
2023-04-10T14:00:44.807Z,19.94
2023-04-10T14:03:12.937Z,19.97
2023-04-10T14:05:41.220Z,19.98
2023-04-10T14:08:11.830Z,19.98
2023-04-10T14:10:39.947Z,19.98
2023-04-10T14:13:08.170Z,19.99
2023-04-10T14:15:36.439Z,20.01
2023-04-10T14:18:04.432Z,20.04
2023-04-10T14:20:32.769Z,20.07
2023-04-10T14:23:04.938Z,20.11
2023-04-10T14:25:32.919Z,20.14
2023-04-10T14:28:01.267Z,20.15
2023-04-10T14:30:31.052Z,20.18
2023-04-10T14:32:59.254Z,20.23
2023-04-10T14:35:27.515Z,20.28
2023-04-10T14:37:55.728Z,20.32
2023-04-10T14:40:25.656Z,20.36
2023-04-10T14:42:53.693Z,20.43
2023-04-10T14:45:21.863Z,20.43
2023-04-10T14:47:49.772Z,20.42
2023-04-10T14:50:17.950Z,20.39
2023-04-10T14:52:46.407Z,20.32
2023-04-10T14:55:14.281Z,20.29
2023-04-10T14:57:42.321Z,20.23
2023-04-10T15:00:10.915Z,20.13
2023-04-10T15:02:39.154Z,20.00
2023-04-10T15:05:07.790Z,19.85
2023-04-10T15:07:36.045Z,19.71
2023-04-10T15:10:04.387Z,19.51
2023-04-10T15:12:32.458Z,19.27
2023-04-10T15:15:01.002Z,19.06
2023-04-10T15:17:30.222Z,18.85
2023-04-10T15:19:58.301Z,18.67
2023-04-10T15:22:27.149Z,18.50
2023-04-10T15:24:55.339Z,18.36
2023-04-10T15:27:23.580Z,18.22
2023-04-10T15:29:51.701Z,18.09
2023-04-10T15:32:19.682Z,17.96
2023-04-10T15:34:47.814Z,17.84
2023-04-10T15:37:16.356Z,17.73
2023-04-10T15:39:44.218Z,17.64
2023-04-10T15:42:12.370Z,17.57
2023-04-10T15:44:40.648Z,17.50
2023-04-10T15:47:08.534Z,17.43
2023-04-10T15:49:38.399Z,17.36
2023-04-10T15:52:07.254Z,17.29
2023-04-10T15:54:36.635Z,17.22
2023-04-10T15:57:04.830Z,17.15
2023-04-10T15:59:33.293Z,17.08
2023-04-10T16:02:01.305Z,17.00
2023-04-10T16:04:30.843Z,16.92
2023-04-10T16:06:59.124Z,16.84
2023-04-10T16:09:27.493Z,16.76
2023-04-10T16:11:56.424Z,16.71
2023-04-10T16:14:24.978Z,16.64
2023-04-10T16:16:52.951Z,16.57
2023-04-10T16:19:24.495Z,16.50
2023-04-10T16:21:52.629Z,16.44
2023-04-10T16:24:20.585Z,16.38
2023-04-10T16:26:51.328Z,16.33
2023-04-10T16:29:20.645Z,16.26
2023-04-10T16:31:50.108Z,16.19
2023-04-10T16:34:18.196Z,16.11
2023-04-10T16:36:46.293Z,16.05
2023-04-10T16:39:14.312Z,15.99
2023-04-10T16:41:42.437Z,15.92
2023-04-10T16:44:10.930Z,15.87
2023-04-10T16:46:38.982Z,15.82
2023-04-10T16:49:07.103Z,15.76
2023-04-10T16:51:35.554Z,15.69
2023-04-10T16:54:04.031Z,15.63
2023-04-10T16:56:34.378Z,15.56
2023-04-10T16:59:02.620Z,15.49
2023-04-10T17:01:31.592Z,15.41
2023-04-10T17:03:59.920Z,15.36
2023-04-10T17:06:28.335Z,15.34
2023-04-10T17:08:56.355Z,15.53
2023-04-10T17:11:24.671Z,15.97
2023-04-10T17:13:52.930Z,16.41
2023-04-10T17:16:21.010Z,17.16
2023-04-10T17:18:50.297Z,17.24
2023-04-10T17:21:18.464Z,17.17
2023-04-10T17:23:46.483Z,17.17
2023-04-10T17:26:16.831Z,17.20
2023-04-10T17:28:46.515Z,17.23
2023-04-10T17:31:16.457Z,17.14
2023-04-10T17:33:44.781Z,16.65
2023-04-10T17:36:13.498Z,16.18
2023-04-10T17:38:42.564Z,15.80
2023-04-10T17:41:13.861Z,15.47
2023-04-10T17:43:42.212Z,15.18
2023-04-10T17:46:15.156Z,14.93
2023-04-10T17:48:45.125Z,14.86
2023-04-10T17:51:13.171Z,15.07
2023-04-10T17:53:41.509Z,15.12
2023-04-10T17:56:19.862Z,15.07
2023-04-10T17:59:02.671Z,14.96
2023-04-10T18:01:31.343Z,14.82
2023-04-10T18:04:03.373Z,14.71
2023-04-10T18:06:32.805Z,14.59
2023-04-10T18:09:00.909Z,14.50
2023-04-10T18:11:28.965Z,14.40
2023-04-10T18:13:57.358Z,14.28
2023-04-10T18:16:25.988Z,14.22
2023-04-10T18:18:54.245Z,14.15
2023-04-10T18:21:22.883Z,13.96
2023-04-10T18:23:50.901Z,13.83
2023-04-10T18:26:21.055Z,13.71
2023-04-10T18:28:49.543Z,13.53
2023-04-10T18:31:19.219Z,13.35
2023-04-10T18:33:53.343Z,13.23
2023-04-10T18:36:32.500Z,13.04
2023-04-10T18:39:00.569Z,12.88
2023-04-10T18:41:28.555Z,12.73
2023-04-10T18:44:04.178Z,12.60
2023-04-10T18:46:33.559Z,12.46
2023-04-10T18:49:03.616Z,12.33
2023-04-10T18:51:35.448Z,12.22
2023-04-10T18:54:09.144Z,12.09
2023-04-10T18:56:38.381Z,11.96
2023-04-10T18:59:06.535Z,11.84
2023-04-10T19:01:35.777Z,11.71
2023-04-10T19:04:04.075Z,11.61
2023-04-10T19:06:33.202Z,11.50
2023-04-10T19:09:02.579Z,11.41
2023-04-10T19:11:30.722Z,11.32
2023-04-10T19:14:01.269Z,11.25
2023-04-10T19:16:29.570Z,11.16
2023-04-10T19:18:57.630Z,11.07
2023-04-10T19:21:26.108Z,10.98
2023-04-10T19:23:55.190Z,10.98
2023-04-10T19:26:23.255Z,10.97
2023-04-10T19:28:51.565Z,10.86
2023-04-10T19:31:21.260Z,10.75
2023-04-10T19:33:49.531Z,10.65
2023-04-10T19:36:19.761Z,10.57
2023-04-10T19:38:51.280Z,10.51
2023-04-10T19:41:19.646Z,10.46
2023-04-10T19:43:48.057Z,10.43
2023-04-10T19:46:20.928Z,10.36
2023-04-10T19:48:49.317Z,10.29
2023-04-10T19:51:19.043Z,10.22
2023-04-10T19:53:47.305Z,10.16
2023-04-10T19:56:17.649Z,10.10
2023-04-10T19:58:47.409Z,10.04
2023-04-10T20:01:16.923Z,9.98
2023-04-10T20:03:45.171Z,9.92
2023-04-10T20:06:13.910Z,9.86
2023-04-10T20:08:42.749Z,9.80
2023-04-10T20:11:11.160Z,9.75
2023-04-10T20:13:41.053Z,9.70
2023-04-10T20:16:11.866Z,9.64
2023-04-10T20:18:40.498Z,9.58
2023-04-10T20:21:09.306Z,9.52
2023-04-10T20:23:37.918Z,9.46
2023-04-10T20:26:06.534Z,9.42
2023-04-10T20:28:34.500Z,9.38
2023-04-10T20:31:02.741Z,9.33
2023-04-10T20:33:31.464Z,9.28
2023-04-10T20:35:59.879Z,9.23
2023-04-10T20:38:28.407Z,9.19
2023-04-10T20:40:56.986Z,9.13
2023-04-10T20:43:26.647Z,9.07
2023-04-10T20:45:54.907Z,9.03
2023-04-10T20:48:22.956Z,8.98
2023-04-10T20:50:52.372Z,8.93
2023-04-10T20:53:20.545Z,8.87
2023-04-10T20:55:52.425Z,8.81
2023-04-10T20:58:20.752Z,8.75
2023-04-10T21:00:53.181Z,8.71
2023-04-10T21:03:21.414Z,8.65
2023-04-10T21:05:51.402Z,8.60
2023-04-10T21:08:21.134Z,8.56
2023-04-10T21:10:49.853Z,8.53
2023-04-10T21:13:17.701Z,8.50
2023-04-10T21:15:48.763Z,8.45
2023-04-10T21:18:17.322Z,8.41
2023-04-10T21:20:45.326Z,8.39
2023-04-10T21:23:13.536Z,8.36
2023-04-10T21:25:41.635Z,8.33
2023-04-10T21:28:09.604Z,8.29
2023-04-10T21:30:37.880Z,8.28
2023-04-10T21:33:05.745Z,8.25
2023-04-10T21:35:33.913Z,8.23
2023-04-10T21:38:02.459Z,8.21
2023-04-10T21:40:34.651Z,8.18
2023-04-10T21:43:05.084Z,8.16
2023-04-10T21:45:37.398Z,8.13
2023-04-10T21:48:05.858Z,8.11
2023-04-10T21:50:33.989Z,8.07
2023-04-10T21:53:02.297Z,8.04
2023-04-10T21:55:30.721Z,8.00
2023-04-10T21:57:58.800Z,7.96
2023-04-10T22:00:26.714Z,7.92
2023-04-10T22:02:57.561Z,7.88
2023-04-10T22:05:26.051Z,7.86
2023-04-10T22:07:53.905Z,7.82
2023-04-10T22:10:22.242Z,7.79
2023-04-10T22:12:50.312Z,7.77
2023-04-10T22:15:19.316Z,7.74
2023-04-10T22:17:48.685Z,7.72
2023-04-10T22:20:16.790Z,7.68
2023-04-10T22:22:46.232Z,7.66
2023-04-10T22:25:14.616Z,7.63
2023-04-10T22:27:42.705Z,7.61
2023-04-10T22:30:11.121Z,7.58
2023-04-10T22:32:39.411Z,7.54
2023-04-10T22:35:08.416Z,7.50
2023-04-10T22:37:36.344Z,7.47
2023-04-10T22:40:05.293Z,7.44
2023-04-10T22:42:33.395Z,7.40
2023-04-10T22:45:01.271Z,7.36
2023-04-10T22:47:30.501Z,7.34
2023-04-10T22:49:58.478Z,7.30
2023-04-10T22:52:26.387Z,7.27
2023-04-10T22:54:54.702Z,7.23
2023-04-10T22:57:22.725Z,7.18
2023-04-10T22:59:50.991Z,7.16
2023-04-10T23:02:19.375Z,7.13
2023-04-10T23:04:47.668Z,7.11
2023-04-10T23:07:15.829Z,7.07
2023-04-10T23:09:43.923Z,7.04
2023-04-10T23:12:11.969Z,7.03
2023-04-10T23:14:39.856Z,6.99
2023-04-10T23:17:08.098Z,6.97
2023-04-10T23:19:36.165Z,6.94
2023-04-10T23:22:07.245Z,6.92
2023-04-10T23:24:35.583Z,6.90
2023-04-10T23:27:07.207Z,6.89
2023-04-10T23:29:35.177Z,6.87
2023-04-10T23:32:03.452Z,6.86
2023-04-10T23:34:31.472Z,6.84
2023-04-10T23:36:59.431Z,6.81
2023-04-10T23:39:27.538Z,6.78
2023-04-10T23:41:57.066Z,6.74
2023-04-10T23:44:25.026Z,6.70
2023-04-10T23:46:53.300Z,6.69
2023-04-10T23:49:23.378Z,6.65
2023-04-10T23:51:51.324Z,6.59
2023-04-10T23:54:19.448Z,6.55
2023-04-10T23:56:47.674Z,6.52
2023-04-10T23:59:17.425Z,6.49
